OOLO2: Oologah Lake

Data processed at Mon Feb 11 2019 23:32


All information presented herein is the property of the government of the United States of America and may be revised or deleted at any time without prior notice.
Dissemination of this information without the expressed written consent of the Public Affairs Office, Tulsa District U.S. Army Corps of Engineers is strictly prohibited.
These data are gathered electronically and, as presented, have not undergone any form of quality control. These data are not guaranteed to be valid or correct.
Go to home page.
Go to station list.
Go to home page.

Upstream stations:

Downstream station:
Previous Day
Next Day
Current Day
    
SHEF ID:       OOLO2     Oologah Lake
STATION TYPE:  RESERVOIR
Flood Pool:  Bottom =   638.00, Top =   661.00

               PRECIP     STAGE  RIV-FLOW ELEVATION   STORAGE   TW-ELEV    INFLOW   RELEASE  AIR-TEMP  WIND-DIRWIND-SPEED REL-HUMID SOLAR-RAD   VOLTAGE  BAT-LOAD
                   in        ft       cfs        ft     ac-ft        ft       cfs       cfs         F       deg       mph         %      W/m2      volt      volt
              Ccp-Rev   Ccp-Rev   Ccp-Rev   Ccp-Rev   Ccp-Rev   Ccp-Rev  Rev-Regi  Rev-Regi   Ccp-Rev   Ccp-Rev   Ccp-Rev   Ccp-Rev   Ccp-Rev   Ccp-Rev   Ccp-Rev
(US/Central)
02/11 00:00      0.01     13.47      2700    638.41    469222      ----       260      2243     40.19    128.90      1.50    100.09      0.00     13.49     13.37
02/11 01:00      0.00     13.47      2700    638.42    469516      ----      1258      2243     40.19    139.40      1.20    100.09      0.00     13.49     13.37
02/11 02:00      0.00     13.47      2700    638.39    468633      ----      1590      2243     39.97     57.10      1.10    100.09      0.00     13.49     13.37
02/11 03:00      0.00     13.47      2700    638.40    468928      ----      1590      2243     39.97     27.40      1.90    100.09      0.00     13.49     13.37
02/11 04:00      0.00     13.47      2700    638.40    468928      ----      1677      2243     40.17     54.00      1.20    100.09      0.00     13.49     13.37
02/11 05:00      0.01     13.46      2691    638.40    468928      ----      1677      2243     40.05      4.60      1.80    100.08      0.00     13.49     13.37
02/11 06:00      0.00     13.47      2700    638.39    468633      ----      1677      2243     40.32     47.70      3.40    100.08      0.00     13.50     13.37
02/11 07:00      0.01     13.46      2691    638.38    468339      ----      1344      2243     40.77     43.60      2.40    100.09      0.00     13.50     13.37
02/11 08:00      0.02     13.46      2691    638.39    468633      ----      1344      2243     40.69     20.40      0.80    100.09      0.00     13.50     13.37
02/11 09:00      0.03     13.46      2691    638.38    468339      ----      1257      2243     41.45     49.70      2.70    100.09     13.60     13.50     13.37
02/11 10:00      0.01     13.47      2700    638.38    468339      ----      1344      2243     42.67     97.30      1.70    100.09     37.20     13.50     13.13
02/11 11:00      0.02     13.47      2700    638.37    468045      ----       346      2243     44.06    128.20      2.40    100.09     61.20     13.49     13.29
02/11 12:00      0.01     13.47      2700    638.36    467751      ----       259      2243     45.75    133.20      3.20    100.09     99.80     13.49     13.37
02/11 13:00      0.00     13.47      2700    638.36    467751      ----       173      2243     47.79    140.40      3.50    100.09    141.20     13.49     13.37
02/11 14:00      0.00     13.47      2700    638.34    467162      ----       592      2242     48.16    133.80      4.70    100.09     77.40     13.49     13.37
02/11 15:00      0.00     13.47      2700    638.32    466574      ----      1257      2242     47.93    158.60      4.90    100.09     45.00     13.50     13.37
02/11 16:00      0.00     13.47      2700    638.32    466574      ----      1922      2242     48.16    160.50      3.80     99.99     26.10     13.50     13.37
02/11 17:00      0.00     13.47      2700    638.36    467751      ----      2341      2242     48.31    174.40      4.20     99.49      6.20     13.48     13.29
02/11 18:00      0.00     13.47      2700    638.33    466868      ----      3093      2242     48.47    173.30      3.40    100.02      0.00     13.49     13.37
02/11 19:00      0.00     13.47      2700    638.33    466868      ----      3426      2242     48.49    196.70      1.80    100.09      0.00     13.48     13.37
02/11 20:00      0.00     13.47      2700    638.37    468045      ----      3758      2242     48.16    223.60      0.80    100.09      0.00     13.47     13.37
02/11 21:00      0.00     13.47      2700    638.34    467162      ----      6752      2243     47.82     10.40      2.00    100.09      0.00     13.47     13.37
02/11 22:00      0.05     13.47      2700    638.35    467457      ----      7417      2242     47.93    308.00      8.30    100.09      0.00     13.48     13.37
02/11 23:00      0.12     13.47      2700    638.40    468928      ----     13071      2243     45.43    315.60     10.60    100.09      0.00     13.48     13.37